Skip Navigation Links Skip Navigation Links

Current Weather

Virginia Tech, Blacksburg, Va.

For information only: do not use for flight planning or navigation.
Latest weather
Observation time Friday, May 25, 2018 8:15 AM EDT
Local time Friday, May 25, 2018 8:33 AM EDT
Flight conditions Marginal Visual Meteorological Conditions
Winds
Wind speed calm
Visibility 10 mi.
Sky condition
Ceiling 1,500 ft. overcast
Cloud layer overcast 1,500 ft.
Temperature 67°F
Dewpoint 63°F
Altimeter 30.21 in.Hg
Derived measurements
Relative humidity 86%
Density altitude 2610 ft.
Remarks
Fully automated report.
Automated weather observing station with precipitation discriminator.
METAR KBCB 251215Z AUTO 00000KT 10SM OVC015 20/17 A3021 RMK AO2 T01960172

Settings

Location code

InnerDrive.Weather 4.0.6615.0 Release CLR 4.0.30319.42000
Copyright ©2018 Inner Drive Technology. All rights reserved. Portions Copyright ©1986-2018 David Braverman.

Find weather

Site navigation


Skip Navigation Links

Place info

Page info

PayPal - The safer, easier way to pay online!

Return home.

Copyright ©2018 Inner Drive Technology. Purveyors of fine, hand-crafted computer software. Page printed 2018-05-25T12:33:19 UTC.